KFY1069 SDCO-SBKP
Flight info
| Callsign | KFY1069 |
|---|---|
| Flight time | 0h 32m |
| Altitude | 5000 |
| Route | UTNAS Z7 GIDGI DCT GENBI |
| Aircraft | B36T/L-BDFGLORY/S |
Departure
| Time | 2026-05-06 13:53 |
|---|---|
| Airport | Sorocaba Airport (SDCO) |
Arrival
| Time | 2026-05-06 14:26 |
|---|---|
| Airport | Viracopos International Airport (SBKP) |
| Time | Latitude | Longitude | Altitude | Speed | Heading |
|---|---|---|---|---|---|
| 2026-05-06 13:38 | -23.48119 | -47.48749 | 2069 ft | 0 kts | 251° |
| 2026-05-06 13:49 | -23.48120 | -47.48752 | 2066 ft | 3 kts | 249° |
| 2026-05-06 13:49 | -23.48083 | -47.48801 | 2058 ft | 13 kts | 343° |
| 2026-05-06 13:49 | -23.48007 | -47.48831 | 2055 ft | 15 kts | 341° |
| 2026-05-06 13:49 | -23.47890 | -47.48874 | 2049 ft | 16 kts | 339° |
| 2026-05-06 13:50 | -23.47798 | -47.48911 | 2045 ft | 14 kts | 339° |
| 2026-05-06 13:50 | -23.47787 | -47.48916 | 2044 ft | 4 kts | 338° |
| 2026-05-06 13:50 | -23.47703 | -47.48945 | 2040 ft | 15 kts | 341° |
| 2026-05-06 13:50 | -23.47608 | -47.48980 | 2036 ft | 16 kts | 342° |
| 2026-05-06 13:51 | -23.47506 | -47.49017 | 2032 ft | 20 kts | 341° |
| 2026-05-06 13:51 | -23.47370 | -47.49068 | 2026 ft | 19 kts | 341° |
| 2026-05-06 13:51 | -23.47255 | -47.49109 | 2023 ft | 14 kts | 340° |
| 2026-05-06 13:51 | -23.47206 | -47.49173 | 2022 ft | 5 kts | 296° |
| 2026-05-06 13:52 | -23.47204 | -47.49178 | 2020 ft | 5 kts | 296° |
| 2026-05-06 13:52 | -23.47213 | -47.49215 | 2016 ft | 3 kts | 184° |
| 2026-05-06 13:52 | -23.47219 | -47.49214 | 2018 ft | 0 kts | 161° |
| 2026-05-06 13:52 | -23.47321 | -47.49176 | 2026 ft | 47 kts | 161° |
| 2026-05-06 13:53 | -23.47870 | -47.48963 | 2154 ft | 106 kts | 155° |
| 2026-05-06 13:53 | -23.48630 | -47.48629 | 2638 ft | 122 kts | 161° |
| 2026-05-06 13:53 | -23.49582 | -47.48766 | 2760 ft | 166 kts | 212° |
| 2026-05-06 13:53 | -23.50268 | -47.49868 | 2682 ft | 190 kts | 257° |
| 2026-05-06 13:54 | -23.50112 | -47.51228 | 2586 ft | 169 kts | 300° |
| 2026-05-06 13:54 | -23.49267 | -47.51941 | 2450 ft | 150 kts | 349° |
| 2026-05-06 13:54 | -23.48273 | -47.51826 | 2416 ft | 141 kts | 14° |
| 2026-05-06 13:54 | -23.47376 | -47.51597 | 2660 ft | 123 kts | 13° |
| 2026-05-06 13:55 | -23.46578 | -47.51399 | 2972 ft | 114 kts | 14° |
| 2026-05-06 13:55 | -23.45792 | -47.51210 | 3291 ft | 128 kts | 12° |
| 2026-05-06 13:55 | -23.44826 | -47.51314 | 3632 ft | 152 kts | 339° |
| 2026-05-06 13:55 | -23.43848 | -47.51842 | 4002 ft | 161 kts | 335° |
| 2026-05-06 13:56 | -23.42848 | -47.52462 | 4355 ft | 167 kts | 331° |
| 2026-05-06 13:56 | -23.42166 | -47.52899 | 4587 ft | 168 kts | 332° |
| 2026-05-06 13:56 | -23.41180 | -47.53585 | 4909 ft | 171 kts | 329° |
| 2026-05-06 13:56 | -23.40128 | -47.54303 | 4928 ft | 184 kts | 330° |
| 2026-05-06 13:57 | -23.39007 | -47.55029 | 4915 ft | 189 kts | 331° |
| 2026-05-06 13:57 | -23.37890 | -47.55785 | 4927 ft | 184 kts | 329° |
| 2026-05-06 13:57 | -23.36799 | -47.56514 | 4924 ft | 182 kts | 330° |
| 2026-05-06 13:57 | -23.35740 | -47.57228 | 4917 ft | 181 kts | 330° |
| 2026-05-06 13:58 | -23.34658 | -47.57948 | 4915 ft | 180 kts | 330° |
| 2026-05-06 13:58 | -23.33594 | -47.58651 | 4911 ft | 177 kts | 330° |
| 2026-05-06 13:58 | -23.32539 | -47.59353 | 4909 ft | 179 kts | 330° |
| 2026-05-06 13:58 | -23.31688 | -47.59912 | 4895 ft | 116 kts | 333° |
| 2026-05-06 13:59 | -23.31082 | -47.60312 | 4706 ft | 98 kts | 329° |
| 2026-05-06 13:59 | -23.30510 | -47.60712 | 4455 ft | 107 kts | 329° |
| 2026-05-06 13:59 | -23.29781 | -47.61228 | 4666 ft | 140 kts | 332° |
| 2026-05-06 13:59 | -23.28860 | -47.61772 | 4851 ft | 162 kts | 333° |
| 2026-05-06 14:00 | -23.27865 | -47.62451 | 4948 ft | 178 kts | 329° |
| 2026-05-06 14:00 | -23.26771 | -47.63193 | 4931 ft | 190 kts | 330° |
| 2026-05-06 14:00 | -23.25650 | -47.63938 | 4930 ft | 184 kts | 330° |
| 2026-05-06 14:00 | -23.24586 | -47.64637 | 4928 ft | 177 kts | 331° |
| 2026-05-06 14:01 | -23.23527 | -47.65318 | 4911 ft | 175 kts | 329° |
| 2026-05-06 14:01 | -23.22512 | -47.66028 | 4916 ft | 172 kts | 329° |
| 2026-05-06 14:01 | -23.21616 | -47.66930 | 4612 ft | 187 kts | 302° |
| 2026-05-06 14:01 | -23.21517 | -47.68323 | 4041 ft | 188 kts | 249° |
| 2026-05-06 14:02 | -23.22269 | -47.69471 | 3390 ft | 180 kts | 227° |
| 2026-05-06 14:02 | -23.23095 | -47.70448 | 3077 ft | 176 kts | 228° |
| 2026-05-06 14:02 | -23.23813 | -47.71342 | 3591 ft | 134 kts | 227° |
| 2026-05-06 14:02 | -23.24498 | -47.72142 | 3712 ft | 148 kts | 234° |
| 2026-05-06 14:03 | -23.24962 | -47.73079 | 4084 ft | 135 kts | 243° |
| 2026-05-06 14:03 | -23.25416 | -47.74026 | 4410 ft | 150 kts | 242° |
| 2026-05-06 14:03 | -23.25924 | -47.75054 | 4749 ft | 157 kts | 243° |
| 2026-05-06 14:03 | -23.26459 | -47.76140 | 4922 ft | 173 kts | 241° |
| 2026-05-06 14:04 | -23.26776 | -47.77443 | 4925 ft | 188 kts | 276° |
| 2026-05-06 14:04 | -23.26295 | -47.78755 | 4926 ft | 190 kts | 306° |
| 2026-05-06 14:04 | -23.25511 | -47.79923 | 4920 ft | 190 kts | 309° |
| 2026-05-06 14:04 | -23.24752 | -47.81044 | 4917 ft | 179 kts | 307° |
| 2026-05-06 14:05 | -23.24037 | -47.82122 | 4913 ft | 174 kts | 308° |
| 2026-05-06 14:05 | -23.23324 | -47.83195 | 4906 ft | 174 kts | 312° |
| 2026-05-06 14:05 | -23.22301 | -47.83791 | 4916 ft | 170 kts | 355° |
| 2026-05-06 14:05 | -23.21158 | -47.83523 | 4922 ft | 170 kts | 22° |
| 2026-05-06 14:06 | -23.20092 | -47.83046 | 4912 ft | 166 kts | 22° |
| 2026-05-06 14:06 | -23.19016 | -47.82575 | 4918 ft | 168 kts | 27° |
| 2026-05-06 14:06 | -23.18250 | -47.81652 | 4914 ft | 168 kts | 65° |
| 2026-05-06 14:06 | -23.17836 | -47.80465 | 4917 ft | 168 kts | 68° |
| 2026-05-06 14:07 | -23.17428 | -47.79274 | 4921 ft | 169 kts | 68° |
| 2026-05-06 14:07 | -23.17011 | -47.78080 | 4926 ft | 168 kts | 69° |
| 2026-05-06 14:07 | -23.16602 | -47.76890 | 4915 ft | 167 kts | 69° |
| 2026-05-06 14:07 | -23.16189 | -47.75707 | 4919 ft | 168 kts | 69° |
| 2026-05-06 14:08 | -23.15772 | -47.74512 | 4916 ft | 169 kts | 70° |
| 2026-05-06 14:08 | -23.15344 | -47.73322 | 4919 ft | 169 kts | 65° |
| 2026-05-06 14:08 | -23.14742 | -47.72241 | 4924 ft | 166 kts | 60° |
| 2026-05-06 14:08 | -23.14248 | -47.71103 | 4915 ft | 168 kts | 68° |
| 2026-05-06 14:09 | -23.13827 | -47.69925 | 4920 ft | 168 kts | 69° |
| 2026-05-06 14:09 | -23.13421 | -47.68734 | 4906 ft | 167 kts | 69° |
| 2026-05-06 14:09 | -23.13001 | -47.67563 | 4908 ft | 166 kts | 68° |
| 2026-05-06 14:09 | -23.12586 | -47.66394 | 4914 ft | 167 kts | 68° |
| 2026-05-06 14:10 | -23.12167 | -47.65211 | 4915 ft | 168 kts | 68° |
| 2026-05-06 14:10 | -23.11750 | -47.64026 | 4914 ft | 167 kts | 69° |
| 2026-05-06 14:10 | -23.11337 | -47.62838 | 4912 ft | 168 kts | 69° |
| 2026-05-06 14:10 | -23.10922 | -47.61662 | 4908 ft | 166 kts | 69° |
| 2026-05-06 14:11 | -23.10514 | -47.60493 | 4911 ft | 166 kts | 69° |
| 2026-05-06 14:11 | -23.10099 | -47.59314 | 4906 ft | 166 kts | 69° |
| 2026-05-06 14:11 | -23.09685 | -47.58145 | 4906 ft | 166 kts | 69° |
| 2026-05-06 14:11 | -23.09265 | -47.56970 | 4915 ft | 168 kts | 69° |
| 2026-05-06 14:12 | -23.08850 | -47.55785 | 4910 ft | 167 kts | 69° |
| 2026-05-06 14:12 | -23.08435 | -47.54609 | 4912 ft | 166 kts | 68° |
| 2026-05-06 14:12 | -23.08023 | -47.53431 | 4914 ft | 167 kts | 69° |
| 2026-05-06 14:12 | -23.07609 | -47.52251 | 4913 ft | 168 kts | 69° |
| 2026-05-06 14:13 | -23.07201 | -47.51078 | 4913 ft | 168 kts | 69° |
| 2026-05-06 14:13 | -23.06739 | -47.49917 | 4915 ft | 167 kts | 60° |
| 2026-05-06 14:13 | -23.06067 | -47.48882 | 4912 ft | 169 kts | 51° |
| 2026-05-06 14:13 | -23.05326 | -47.47898 | 4921 ft | 168 kts | 50° |
| 2026-05-06 14:14 | -23.04582 | -47.46924 | 4929 ft | 167 kts | 50° |
| 2026-05-06 14:14 | -23.03839 | -47.45951 | 4928 ft | 166 kts | 50° |
| 2026-05-06 14:14 | -23.03370 | -47.44834 | 4919 ft | 164 kts | 82° |
| 2026-05-06 14:14 | -23.03271 | -47.43597 | 4922 ft | 166 kts | 90° |
| 2026-05-06 14:15 | -23.03480 | -47.42370 | 4934 ft | 166 kts | 101° |
| 2026-05-06 14:15 | -23.03531 | -47.41127 | 4931 ft | 165 kts | 84° |
| 2026-05-06 14:15 | -23.03403 | -47.39887 | 4952 ft | 164 kts | 82° |
| 2026-05-06 14:15 | -23.03272 | -47.38635 | 4956 ft | 169 kts | 83° |
| 2026-05-06 14:16 | -23.03145 | -47.37365 | 4961 ft | 169 kts | 83° |
| 2026-05-06 14:16 | -23.03013 | -47.36102 | 4962 ft | 169 kts | 84° |
| 2026-05-06 14:16 | -23.02886 | -47.34833 | 4971 ft | 171 kts | 84° |
| 2026-05-06 14:16 | -23.02763 | -47.33559 | 4967 ft | 168 kts | 83° |
| 2026-05-06 14:17 | -23.02628 | -47.32311 | 4975 ft | 166 kts | 83° |
| 2026-05-06 14:17 | -23.02498 | -47.31061 | 4982 ft | 168 kts | 84° |
| 2026-05-06 14:17 | -23.02371 | -47.29791 | 4978 ft | 170 kts | 83° |
| 2026-05-06 14:17 | -23.02241 | -47.28523 | 4902 ft | 169 kts | 83° |
| 2026-05-06 14:18 | -23.02117 | -47.27274 | 4773 ft | 165 kts | 83° |
| 2026-05-06 14:18 | -23.01999 | -47.26049 | 4658 ft | 163 kts | 83° |
| 2026-05-06 14:18 | -23.01865 | -47.24836 | 4534 ft | 160 kts | 82° |
| 2026-05-06 14:18 | -23.01827 | -47.23635 | 4416 ft | 163 kts | 103° |
| 2026-05-06 14:19 | -23.02425 | -47.22583 | 4297 ft | 166 kts | 127° |
| 2026-05-06 14:19 | -23.03148 | -47.21607 | 4178 ft | 165 kts | 127° |
| 2026-05-06 14:19 | -23.03860 | -47.20628 | 4055 ft | 165 kts | 127° |
| 2026-05-06 14:19 | -23.04605 | -47.19673 | 3935 ft | 165 kts | 129° |
| 2026-05-06 14:20 | -23.05322 | -47.18695 | 3827 ft | 166 kts | 126° |
| 2026-05-06 14:20 | -23.06032 | -47.17705 | 3717 ft | 167 kts | 127° |
| 2026-05-06 14:20 | -23.06751 | -47.16714 | 3590 ft | 166 kts | 127° |
| 2026-05-06 14:20 | -23.07468 | -47.15734 | 3508 ft | 164 kts | 127° |
| 2026-05-06 14:21 | -23.08165 | -47.14765 | 3499 ft | 161 kts | 128° |
| 2026-05-06 14:21 | -23.08836 | -47.13835 | 3488 ft | 144 kts | 127° |
| 2026-05-06 14:21 | -23.09428 | -47.13027 | 3494 ft | 136 kts | 127° |
| 2026-05-06 14:21 | -23.10024 | -47.12211 | 3490 ft | 137 kts | 128° |
| 2026-05-06 14:22 | -23.10459 | -47.11326 | 3490 ft | 134 kts | 95° |
| 2026-05-06 14:22 | -23.10109 | -47.10420 | 3497 ft | 136 kts | 45° |
| 2026-05-06 14:22 | -23.09403 | -47.09725 | 3487 ft | 136 kts | 44° |
| 2026-05-06 14:22 | -23.08705 | -47.09046 | 3498 ft | 136 kts | 42° |
| 2026-05-06 14:23 | -23.07971 | -47.08386 | 3505 ft | 139 kts | 41° |
| 2026-05-06 14:23 | -23.07228 | -47.07737 | 3504 ft | 139 kts | 41° |
| 2026-05-06 14:23 | -23.06478 | -47.07088 | 3509 ft | 139 kts | 40° |
| 2026-05-06 14:23 | -23.05641 | -47.06611 | 3492 ft | 133 kts | 6° |
| 2026-05-06 14:24 | -23.04808 | -47.06860 | 3486 ft | 120 kts | 329° |
| 2026-05-06 14:24 | -23.04217 | -47.07492 | 3479 ft | 124 kts | 303° |
| 2026-05-06 14:24 | -23.03975 | -47.08443 | 3366 ft | 140 kts | 282° |
| 2026-05-06 14:24 | -23.03600 | -47.09428 | 3220 ft | 139 kts | 301° |
| 2026-05-06 14:25 | -23.03040 | -47.10246 | 2991 ft | 132 kts | 311° |
| 2026-05-06 14:25 | -23.02485 | -47.11027 | 2694 ft | 128 kts | 307° |
| 2026-05-06 14:25 | -23.01946 | -47.11767 | 2424 ft | 122 kts | 309° |
| 2026-05-06 14:25 | -23.01444 | -47.12463 | 2181 ft | 108 kts | 310° |
| 2026-05-06 14:26 | -23.01042 | -47.13024 | 2159 ft | 74 kts | 307° |
| 2026-05-06 14:26 | -23.00836 | -47.13318 | 2153 ft | 31 kts | 304° |
| 2026-05-06 14:26 | -23.00756 | -47.13517 | 2150 ft | 7 kts | 279° |
| 2026-05-06 14:26 | -23.00748 | -47.13573 | 2151 ft | 7 kts | 278° |
| 2026-05-06 14:27 | -23.00744 | -47.13601 | 2151 ft | 3 kts | 278° |
| 2026-05-06 14:27 | -23.00740 | -47.13664 | 2151 ft | 8 kts | 259° |
| 2026-05-06 14:27 | -23.00793 | -47.13703 | 2152 ft | 0 kts | 154° |
| 2026-05-06 14:27 | -23.00831 | -47.13699 | 2152 ft | 6 kts | 210° |
| 2026-05-06 14:28 | -23.00892 | -47.13716 | 2152 ft | 7 kts | 170° |
| 2026-05-06 14:28 | -23.00948 | -47.13679 | 2153 ft | 10 kts | 124° |
| 2026-05-06 14:28 | -23.00958 | -47.13629 | 2153 ft | 10 kts | 38° |
| 2026-05-06 14:28 | -23.00974 | -47.13588 | 2153 ft | 0 kts | 131° |